Terminal Aerodrome Forecast
Issued by NWS Upton, NY

Home | Current Version | Previous Version | Text Only | Print | Product List | Glossary On
Versions: 1 2 3 4 5 6 7 8 9 10 11 12 13 14 15 16 17 18 19 20 21 22 23 24 25 26 27 28 29 30 31 32 33 34 35 36
000
FTUS41 KOKX 251549 AAB
TAFJFK
TAF AMD
KJFK 251549Z 2516/2618 08016G25KT 3SM -RA BR OVC006
      TEMPO 2516/2518 2SM -RA BR OVC004
     FM251800 09014G20KT 3SM -DZ BR OVC005
     FM252100 08009KT 2SM -DZ BR OVC004
     FM260300 VRB05KT 3SM SHRA BR OVC004 PROB30 2603/2608 1SM -TSRA
      SCT006 OVC015CB
     FM261000 30008KT 6SM -SHRA BKN004 OVC010
     FM261400 30014KT P6SM BKN025=

USA.gov is the U.S. government's official web portal to all federal, state and local government web resources and services.